createdAt,value
2022-12-18T00:01:19.508Z,-6.80
2022-12-18T00:03:46.928Z,-6.80
2022-12-18T00:06:15.489Z,-6.80
2022-12-18T00:08:43.333Z,-6.90
2022-12-18T00:11:12.979Z,-6.90
2022-12-18T00:13:40.234Z,-7.00
2022-12-18T00:16:10.325Z,-6.90
2022-12-18T00:18:38.224Z,-6.90
2022-12-18T00:21:07.809Z,-6.90
2022-12-18T00:23:36.263Z,-7.00
2022-12-18T00:26:07.635Z,-6.90
2022-12-18T00:28:34.980Z,-7.00
2022-12-18T00:31:07.292Z,-7.00
2022-12-18T00:33:35.241Z,-7.00
2022-12-18T00:36:23.312Z,-7.00
2022-12-18T00:38:52.657Z,-7.00
2022-12-18T00:41:40.094Z,-7.00
2022-12-18T00:44:08.663Z,-7.10
2022-12-18T00:46:35.426Z,-7.10
2022-12-18T00:49:02.614Z,-7.10
2022-12-18T00:51:29.502Z,-7.10
2022-12-18T00:53:56.529Z,-7.00
2022-12-18T00:56:24.008Z,-7.10
2022-12-18T00:58:51.033Z,-7.10
2022-12-18T01:01:18.613Z,-7.00
2022-12-18T01:03:47.485Z,-7.00
2022-12-18T01:06:16.467Z,-7.10
2022-12-18T01:08:43.652Z,-7.20
2022-12-18T01:11:16.637Z,-7.10
2022-12-18T01:13:44.242Z,-7.20
2022-12-18T01:16:16.204Z,-7.30
2022-12-18T01:18:43.055Z,-7.30
2022-12-18T01:21:12.450Z,-7.30
2022-12-18T01:23:39.654Z,-7.30
2022-12-18T01:26:12.808Z,-7.30
2022-12-18T01:28:40.635Z,-7.30
2022-12-18T01:31:28.820Z,-7.30
2022-12-18T01:33:56.675Z,-7.30
2022-12-18T01:36:31.927Z,-7.40
2022-12-18T01:39:01.795Z,-7.30
2022-12-18T01:41:52.789Z,-7.50
2022-12-18T01:44:50.707Z,-7.40
2022-12-18T01:47:48.163Z,-7.40
2022-12-18T01:50:20.521Z,-7.50
2022-12-18T01:52:54.818Z,-7.60
2022-12-18T01:55:24.947Z,-7.60
2022-12-18T01:57:55.000Z,-7.50
2022-12-18T02:00:23.561Z,-7.50
2022-12-18T02:02:52.520Z,-7.50
2022-12-18T02:05:40.136Z,-7.50
2022-12-18T02:08:21.250Z,-7.50
2022-12-18T02:11:11.000Z,-7.40
2022-12-18T02:14:14.711Z,-7.50
2022-12-18T02:16:59.188Z,-7.50
2022-12-18T02:19:52.343Z,-7.60
2022-12-18T02:22:40.295Z,-7.70
2022-12-18T02:25:29.126Z,-7.70
2022-12-18T02:27:59.870Z,-7.80
2022-12-18T02:30:30.346Z,-7.80
2022-12-18T02:32:58.568Z,-7.80
2022-12-18T02:35:28.479Z,-7.80
2022-12-18T02:37:59.439Z,-7.90
2022-12-18T02:40:30.271Z,-7.90
2022-12-18T02:43:13.621Z,-7.90
2022-12-18T02:45:59.018Z,-7.90
2022-12-18T02:48:34.781Z,-7.90
2022-12-18T02:51:16.254Z,-7.80
2022-12-18T02:53:50.767Z,-7.80
2022-12-18T02:56:25.193Z,-7.80
2022-12-18T02:58:59.077Z,-7.70
2022-12-18T03:02:02.732Z,-7.70
2022-12-18T03:04:41.555Z,-7.80
2022-12-18T03:07:16.339Z,-7.80
2022-12-18T03:09:48.666Z,-7.90
2022-12-18T03:12:42.607Z,-7.90
2022-12-18T03:15:26.017Z,-8.00
2022-12-18T03:18:10.902Z,-8.00
2022-12-18T03:20:39.884Z,-8.00
2022-12-18T03:23:17.024Z,-8.10
2022-12-18T03:25:50.087Z,-8.10
2022-12-18T03:28:22.619Z,-8.10
2022-12-18T03:30:58.715Z,-8.10
2022-12-18T03:33:32.744Z,-8.00
2022-12-18T03:35:59.600Z,-8.00
2022-12-18T03:38:26.404Z,-8.00
2022-12-18T03:40:54.490Z,-8.10
2022-12-18T03:43:44.608Z,-8.10
2022-12-18T03:46:31.254Z,-8.10
2022-12-18T03:49:04.357Z,-8.20
2022-12-18T03:51:43.263Z,-8.30
2022-12-18T03:54:11.696Z,-8.30
2022-12-18T03:56:49.354Z,-8.30
2022-12-18T03:59:17.986Z,-8.20
2022-12-18T04:01:50.099Z,-8.20
2022-12-18T04:04:19.615Z,-8.20
2022-12-18T04:06:48.770Z,-8.20
2022-12-18T04:09:16.818Z,-8.10
2022-12-18T04:11:48.319Z,-8.00
2022-12-18T04:14:18.171Z,-8.00
2022-12-18T04:16:48.147Z,-8.10
2022-12-18T04:19:17.614Z,-8.10
2022-12-18T04:21:47.725Z,-8.10
2022-12-18T04:24:14.978Z,-8.20
2022-12-18T04:26:50.199Z,-8.20
2022-12-18T04:29:21.794Z,-8.20
2022-12-18T04:31:48.809Z,-8.20
2022-12-18T04:34:16.602Z,-8.20
2022-12-18T04:36:49.406Z,-8.20
2022-12-18T04:39:16.707Z,-8.30
2022-12-18T04:41:43.989Z,-8.30
2022-12-18T04:44:13.524Z,-8.30
2022-12-18T04:46:40.514Z,-8.30
2022-12-18T04:49:07.354Z,-8.30
2022-12-18T04:51:34.086Z,-8.30
2022-12-18T04:54:00.803Z,-8.30
2022-12-18T04:56:27.568Z,-8.30
2022-12-18T04:58:54.324Z,-8.40
2022-12-18T05:01:21.323Z,-8.40
2022-12-18T05:03:48.361Z,-8.30
2022-12-18T05:06:15.715Z,-8.40
2022-12-18T05:08:42.421Z,-8.40
2022-12-18T05:11:13.202Z,-8.40
2022-12-18T05:13:40.436Z,-8.40
2022-12-18T05:16:07.920Z,-8.50
2022-12-18T05:18:35.196Z,-8.40
2022-12-18T05:21:02.277Z,-8.40
2022-12-18T05:23:29.288Z,-8.40
2022-12-18T05:26:01.766Z,-8.40
2022-12-18T05:28:30.423Z,-8.40
2022-12-18T05:31:00.200Z,-8.40
2022-12-18T05:33:29.990Z,-8.40
2022-12-18T05:36:06.369Z,-8.30
2022-12-18T05:38:35.268Z,-8.30
2022-12-18T05:41:02.495Z,-8.30
2022-12-18T05:43:30.653Z,-8.20
2022-12-18T05:45:58.427Z,-8.20
2022-12-18T05:48:25.222Z,-8.20
2022-12-18T05:50:52.136Z,-8.30
2022-12-18T05:53:20.688Z,-8.30
2022-12-18T05:55:48.624Z,-8.30
2022-12-18T05:58:16.454Z,-8.50
2022-12-18T06:00:46.560Z,-8.40
2022-12-18T06:03:14.364Z,-8.60
2022-12-18T06:05:43.927Z,-8.60
2022-12-18T06:08:12.051Z,-8.60
2022-12-18T06:10:39.186Z,-8.60
2022-12-18T06:13:07.017Z,-8.60
2022-12-18T06:15:36.686Z,-8.50
2022-12-18T06:18:03.537Z,-8.50
2022-12-18T06:20:33.645Z,-8.50
2022-12-18T06:23:01.013Z,-8.40
2022-12-18T06:25:28.059Z,-8.50
2022-12-18T06:27:55.092Z,-8.50
2022-12-18T06:30:21.852Z,-8.50
2022-12-18T06:32:54.642Z,-8.40
2022-12-18T06:35:23.292Z,-8.40
2022-12-18T06:37:50.068Z,-8.50
2022-12-18T06:40:17.628Z,-8.40
2022-12-18T06:42:44.329Z,-8.40
2022-12-18T06:45:12.406Z,-8.40
2022-12-18T06:47:39.149Z,-8.40
2022-12-18T06:50:06.635Z,-8.50
2022-12-18T06:52:34.499Z,-8.40
2022-12-18T06:55:01.847Z,-8.50
2022-12-18T06:57:28.821Z,-8.50
2022-12-18T06:59:55.685Z,-8.50
2022-12-18T07:02:22.471Z,-8.50
2022-12-18T07:04:52.450Z,-8.40
2022-12-18T07:07:19.423Z,-8.40
2022-12-18T07:09:46.215Z,-8.30
2022-12-18T07:12:13.084Z,-8.30
2022-12-18T07:14:39.936Z,-8.20
2022-12-18T07:17:06.857Z,-8.10
2022-12-18T07:19:34.146Z,-8.00
2022-12-18T07:22:01.486Z,-8.10
2022-12-18T07:24:28.906Z,-8.00
2022-12-18T07:26:55.666Z,-8.00
2022-12-18T07:29:22.483Z,-8.00
2022-12-18T07:31:50.231Z,-7.90
2022-12-18T07:34:17.426Z,-7.90
2022-12-18T07:36:44.231Z,-7.90
2022-12-18T07:39:12.505Z,-7.90
2022-12-18T07:41:46.806Z,-7.90
2022-12-18T07:44:16.386Z,-7.90
2022-12-18T07:46:43.142Z,-7.90
2022-12-18T07:49:09.882Z,-7.90
2022-12-18T07:51:36.649Z,-7.90
2022-12-18T07:54:03.747Z,-7.90
2022-12-18T07:56:31.595Z,-7.90
2022-12-18T07:58:59.966Z,-7.90
2022-12-18T08:01:26.934Z,-7.80
2022-12-18T08:03:54.097Z,-7.80
2022-12-18T08:06:22.392Z,-7.80
2022-12-18T08:08:55.710Z,-7.80
2022-12-18T08:11:24.250Z,-7.80
2022-12-18T08:13:51.320Z,-7.90
2022-12-18T08:16:18.819Z,-7.80
2022-12-18T08:18:46.558Z,-7.90
2022-12-18T08:21:16.164Z,-7.80
2022-12-18T08:23:43.941Z,-7.80
2022-12-18T08:26:12.660Z,-7.90
2022-12-18T08:28:39.543Z,-7.80
2022-12-18T08:31:06.964Z,-7.90
2022-12-18T08:33:34.818Z,-7.80
2022-12-18T08:36:02.685Z,-7.80
2022-12-18T08:38:29.459Z,-7.80
2022-12-18T08:41:07.734Z,-7.80
2022-12-18T08:43:53.372Z,-7.70
2022-12-18T08:46:21.672Z,-7.70
2022-12-18T08:48:48.525Z,-7.70
2022-12-18T08:51:18.062Z,-7.60
2022-12-18T08:53:45.807Z,-7.60
2022-12-18T08:56:13.522Z,-7.60
2022-12-18T08:58:41.320Z,-7.50
2022-12-18T09:01:10.267Z,-7.40
2022-12-18T09:03:37.496Z,-7.40
2022-12-18T09:06:04.938Z,-7.40
2022-12-18T09:08:32.155Z,-7.40
2022-12-18T09:10:58.982Z,-7.40
2022-12-18T09:13:25.779Z,-7.40
2022-12-18T09:15:54.496Z,-7.40
2022-12-18T09:18:23.637Z,-7.40
2022-12-18T09:20:52.723Z,-7.30
2022-12-18T09:23:19.592Z,-7.30
2022-12-18T09:25:46.543Z,-7.30
2022-12-18T09:28:18.542Z,-7.30
2022-12-18T09:30:49.679Z,-7.30
2022-12-18T09:33:17.955Z,-7.20
2022-12-18T09:35:46.019Z,-7.20
2022-12-18T09:38:15.641Z,-7.10
2022-12-18T09:40:51.469Z,-7.00
2022-12-18T09:43:30.591Z,-7.00
2022-12-18T09:46:05.892Z,-7.00
2022-12-18T09:48:37.357Z,-6.90
2022-12-18T09:51:12.447Z,-6.80
2022-12-18T09:53:42.275Z,-6.80
2022-12-18T09:56:16.910Z,-6.70
2022-12-18T09:58:54.543Z,-6.70
2022-12-18T10:01:27.080Z,-6.70
2022-12-18T10:03:57.682Z,-6.60
2022-12-18T10:06:40.009Z,-6.60
2022-12-18T10:09:12.646Z,-6.60
2022-12-18T10:12:05.192Z,-6.50
2022-12-18T10:14:43.271Z,-6.50
2022-12-18T10:17:22.076Z,-6.40
2022-12-18T10:20:03.849Z,-6.40
2022-12-18T10:22:33.370Z,-6.20
2022-12-18T10:25:27.405Z,-6.30
2022-12-18T10:27:58.775Z,-6.20
2022-12-18T10:30:28.169Z,-6.10
2022-12-18T10:32:57.102Z,-6.00
2022-12-18T10:35:28.184Z,-5.80
2022-12-18T10:38:28.684Z,-5.70
2022-12-18T10:41:18.381Z,-5.60
2022-12-18T10:43:45.612Z,-5.60
2022-12-18T10:46:12.344Z,-5.40
2022-12-18T10:48:48.224Z,-5.30
2022-12-18T10:51:29.573Z,-5.40
2022-12-18T10:54:06.911Z,-5.30
2022-12-18T10:56:36.675Z,-5.20
2022-12-18T10:59:09.079Z,-5.10
2022-12-18T11:01:57.301Z,-5.10
2022-12-18T11:04:28.083Z,-5.00
2022-12-18T11:06:57.216Z,-5.10
2022-12-18T11:09:29.393Z,-5.00
2022-12-18T11:12:00.131Z,-4.80
2022-12-18T11:14:48.976Z,-4.70
2022-12-18T11:17:36.670Z,-4.60
2022-12-18T11:20:10.257Z,-4.60
2022-12-18T11:22:39.131Z,-4.60
2022-12-18T11:25:35.654Z,-4.50
2022-12-18T11:28:06.268Z,-4.50
2022-12-18T11:30:37.667Z,-4.40
2022-12-18T11:33:12.659Z,-4.40
2022-12-18T11:36:04.628Z,-4.50
2022-12-18T11:38:36.209Z,-4.60
2022-12-18T11:41:49.418Z,-4.60
2022-12-18T11:44:24.238Z,-4.60
2022-12-18T11:46:57.842Z,-4.70
2022-12-18T11:49:31.652Z,-4.70
2022-12-18T11:52:08.924Z,-4.80
2022-12-18T11:54:35.776Z,-5.00
2022-12-18T11:57:02.511Z,-5.00
2022-12-18T11:59:29.360Z,-5.00
2022-12-18T12:02:01.732Z,-5.00
2022-12-18T12:04:32.036Z,-4.90
2022-12-18T12:07:10.818Z,-4.90
2022-12-18T12:10:08.742Z,-4.80
2022-12-18T12:12:48.603Z,-4.70
2022-12-18T12:15:31.067Z,-4.70
2022-12-18T12:18:17.253Z,-4.60
2022-12-18T12:21:00.312Z,-4.60
2022-12-18T12:23:32.455Z,-4.60
2022-12-18T12:25:59.636Z,-4.70
2022-12-18T12:28:42.105Z,-4.70
2022-12-18T12:31:28.500Z,-4.60
2022-12-18T12:34:08.339Z,-4.60
2022-12-18T12:36:53.839Z,-4.70
2022-12-18T12:39:26.473Z,-4.80
2022-12-18T12:42:14.691Z,-4.80
2022-12-18T12:44:54.206Z,-4.70
2022-12-18T12:47:27.717Z,-4.60
2022-12-18T12:49:56.114Z,-4.50
2022-12-18T12:52:35.719Z,-4.40
2022-12-18T12:55:10.308Z,-4.50
2022-12-18T12:57:49.495Z,-4.50
2022-12-18T13:00:20.202Z,-4.60
2022-12-18T13:03:00.212Z,-4.60
2022-12-18T13:05:35.542Z,-4.70
2022-12-18T13:08:08.985Z,-4.90
2022-12-18T13:10:37.320Z,-4.80
2022-12-18T13:13:13.503Z,-4.80
2022-12-18T13:15:48.284Z,-4.80
2022-12-18T13:18:19.257Z,-4.80
2022-12-18T13:21:13.744Z,-4.80
2022-12-18T13:23:41.423Z,-4.90
2022-12-18T13:26:09.209Z,-4.90
2022-12-18T13:28:48.374Z,-5.00
2022-12-18T13:31:36.440Z,-5.00
2022-12-18T13:34:28.264Z,-5.00
2022-12-18T13:36:58.288Z,-5.00
2022-12-18T13:39:35.907Z,-5.10
2022-12-18T13:42:06.464Z,-5.10
2022-12-18T13:44:39.983Z,-5.10
2022-12-18T13:47:27.041Z,-5.10
2022-12-18T13:49:53.914Z,-5.20
2022-12-18T13:52:25.088Z,-5.20
2022-12-18T13:54:57.383Z,-5.20
2022-12-18T13:57:33.350Z,-5.20
2022-12-18T14:00:19.741Z,-5.30
2022-12-18T14:02:47.492Z,-5.30
2022-12-18T14:05:30.828Z,-5.30
2022-12-18T14:08:12.395Z,-5.30
2022-12-18T14:10:48.586Z,-5.30
2022-12-18T14:13:29.091Z,-5.30
2022-12-18T14:15:57.513Z,-5.40
2022-12-18T14:18:32.133Z,-5.40
2022-12-18T14:21:02.663Z,-5.30
2022-12-18T14:23:34.362Z,-5.30
2022-12-18T14:26:06.109Z,-5.30
2022-12-18T14:28:34.228Z,-5.30
2022-12-18T14:31:00.992Z,-5.30
2022-12-18T14:33:28.758Z,-5.30
2022-12-18T14:35:55.511Z,-5.30
2022-12-18T14:38:42.019Z,-5.40
2022-12-18T14:41:17.159Z,-5.40
2022-12-18T14:43:46.927Z,-5.40
2022-12-18T14:46:31.037Z,-5.40
2022-12-18T14:48:58.458Z,-5.40
2022-12-18T14:51:31.222Z,-5.40
2022-12-18T14:54:01.691Z,-5.40
2022-12-18T14:56:33.630Z,-5.40
2022-12-18T14:59:06.811Z,-5.60
2022-12-18T15:01:38.514Z,-5.60
2022-12-18T15:04:24.004Z,-5.50
2022-12-18T15:07:17.792Z,-5.50
2022-12-18T15:10:11.400Z,-5.60
2022-12-18T15:12:44.282Z,-5.60
2022-12-18T15:15:41.437Z,-5.60
2022-12-18T15:18:08.741Z,-5.60
2022-12-18T15:20:49.615Z,-5.60
2022-12-18T15:23:34.370Z,-5.60
2022-12-18T15:26:11.513Z,-5.60
2022-12-18T15:28:49.728Z,-5.60
2022-12-18T15:31:17.782Z,-5.60
2022-12-18T15:33:53.084Z,-5.60
2022-12-18T15:36:26.789Z,-5.60
2022-12-18T15:39:04.878Z,-5.70
2022-12-18T15:41:37.441Z,-5.70
2022-12-18T15:44:23.775Z,-5.70
2022-12-18T15:46:50.526Z,-5.80
2022-12-18T15:49:17.255Z,-5.80
2022-12-18T15:51:44.385Z,-5.90
2022-12-18T15:54:17.028Z,-5.90
2022-12-18T15:57:02.821Z,-5.90
2022-12-18T15:59:29.586Z,-5.90
2022-12-18T16:01:57.630Z,-5.90
2022-12-18T16:04:25.629Z,-5.90
2022-12-18T16:09:42.877Z,-5.90
2022-12-18T16:12:27.908Z,-5.90
2022-12-18T16:14:54.667Z,-6.00
2022-12-18T16:17:21.522Z,-5.90
2022-12-18T16:19:48.433Z,-5.90
2022-12-18T16:22:29.045Z,-6.00
2022-12-18T16:24:57.535Z,-6.00
2022-12-18T16:27:25.180Z,-6.00
2022-12-18T16:29:52.022Z,-6.00
2022-12-18T16:32:21.219Z,-6.00
2022-12-18T16:34:48.388Z,-6.00
2022-12-18T16:37:16.499Z,-6.00
2022-12-18T16:39:43.696Z,-6.00
2022-12-18T16:42:19.737Z,-6.00
2022-12-18T16:44:47.803Z,-6.10
2022-12-18T16:47:17.830Z,-6.00
2022-12-18T16:49:51.506Z,-6.00
2022-12-18T16:52:20.142Z,-6.00
2022-12-18T16:54:46.874Z,-6.00
2022-12-18T16:57:16.048Z,-6.00
2022-12-18T16:59:42.940Z,-6.00
2022-12-18T17:02:28.698Z,-6.00
2022-12-18T17:04:57.466Z,-6.00
2022-12-18T17:07:25.135Z,-6.00
2022-12-18T17:09:54.064Z,-6.00
2022-12-18T17:12:21.642Z,-6.00
2022-12-18T17:14:48.545Z,-6.10
2022-12-18T17:17:23.980Z,-6.10
2022-12-18T17:19:52.275Z,-6.10
2022-12-18T17:22:19.792Z,-6.10
2022-12-18T17:24:47.330Z,-6.10
2022-12-18T17:27:14.404Z,-6.10
2022-12-18T17:29:47.288Z,-6.10
2022-12-18T17:32:15.557Z,-6.10
2022-12-18T17:34:42.315Z,-6.10
2022-12-18T17:37:09.592Z,-6.10
2022-12-18T17:39:36.489Z,-6.10
2022-12-18T17:42:03.984Z,-6.00
2022-12-18T17:44:32.049Z,-6.00
2022-12-18T17:46:58.871Z,-6.00
2022-12-18T17:49:25.618Z,-6.00
2022-12-18T17:51:52.463Z,-6.00
2022-12-18T17:54:19.954Z,-6.00
2022-12-18T17:56:46.731Z,-5.90
2022-12-18T17:59:13.517Z,-5.90
2022-12-18T18:01:44.321Z,-5.90
2022-12-18T18:04:13.530Z,-5.90
2022-12-18T18:06:40.823Z,-5.90
2022-12-18T18:09:15.622Z,-5.90
2022-12-18T18:12:03.997Z,-5.90
2022-12-18T18:14:31.270Z,-5.90
2022-12-18T18:17:00.783Z,-5.90
2022-12-18T18:19:33.105Z,-5.80
2022-12-18T18:22:00.031Z,-5.80
2022-12-18T18:24:27.121Z,-5.80
2022-12-18T18:26:53.899Z,-5.80
2022-12-18T18:29:26.854Z,-5.70
2022-12-18T18:31:54.741Z,-5.70
2022-12-18T18:34:24.677Z,-5.70
2022-12-18T18:36:51.552Z,-5.70
2022-12-18T18:39:18.696Z,-5.60
2022-12-18T18:41:48.257Z,-5.60
2022-12-18T18:44:16.746Z,-5.60
2022-12-18T18:46:43.745Z,-5.50
2022-12-18T18:49:11.460Z,-5.50
2022-12-18T18:51:42.723Z,-5.40
2022-12-18T18:54:10.020Z,-5.40
2022-12-18T18:57:03.903Z,-5.40
2022-12-18T18:59:27.786Z,-5.30
2022-12-18T19:01:59.884Z,-5.20
2022-12-18T19:04:30.795Z,-5.20
2022-12-18T19:06:57.526Z,-5.10
2022-12-18T19:09:24.891Z,-5.10
2022-12-18T19:12:11.040Z,-5.10
2022-12-18T19:14:37.858Z,-5.00
2022-12-18T19:17:04.610Z,-5.00
2022-12-18T19:19:32.607Z,-5.00
2022-12-18T19:21:59.446Z,-5.00
2022-12-18T19:24:26.792Z,-5.00
2022-12-18T19:26:56.407Z,-4.90
2022-12-18T19:29:25.218Z,-4.90
2022-12-18T19:31:52.058Z,-4.90
2022-12-18T19:34:19.103Z,-4.90
2022-12-18T19:36:46.544Z,-4.80
2022-12-18T19:39:16.239Z,-4.80
2022-12-18T19:41:43.559Z,-4.80
2022-12-18T19:44:16.807Z,-4.70
2022-12-18T19:46:46.034Z,-4.70
2022-12-18T19:49:17.510Z,-4.70
2022-12-18T19:51:45.388Z,-4.70
2022-12-18T19:54:17.266Z,-4.70
2022-12-18T19:56:44.995Z,-4.60
2022-12-18T19:59:11.961Z,-4.70
2022-12-18T20:01:38.789Z,-4.60
2022-12-18T20:04:05.909Z,-4.60
2022-12-18T20:06:50.071Z,-4.60
2022-12-18T20:09:17.857Z,-4.60
2022-12-18T20:11:45.431Z,-4.50
2022-12-18T20:14:14.367Z,-4.50
2022-12-18T20:16:43.742Z,-4.50
2022-12-18T20:19:12.644Z,-4.40
2022-12-18T20:21:39.773Z,-4.40
2022-12-18T20:24:08.301Z,-4.40
2022-12-18T20:26:35.065Z,-4.40
2022-12-18T20:29:01.830Z,-4.40
2022-12-18T20:31:28.644Z,-4.40
2022-12-18T20:33:59.719Z,-4.50
2022-12-18T20:36:29.533Z,-4.50
2022-12-18T20:39:00.407Z,-4.40
2022-12-18T20:41:31.614Z,-4.40
2022-12-18T20:44:09.866Z,-4.40
2022-12-18T20:46:57.245Z,-4.30
2022-12-18T20:49:25.485Z,-4.40
2022-12-18T20:51:57.599Z,-4.30
2022-12-18T20:54:26.823Z,-4.30
2022-12-18T20:56:53.813Z,-4.30
2022-12-18T20:59:21.063Z,-4.30
2022-12-18T21:01:48.952Z,-4.20
2022-12-18T21:04:18.449Z,-4.20
2022-12-18T21:06:51.308Z,-4.30
2022-12-18T21:09:20.433Z,-4.20
2022-12-18T21:12:05.638Z,-4.20
2022-12-18T21:14:32.552Z,-4.20
2022-12-18T21:17:02.646Z,-4.20
2022-12-18T21:19:29.921Z,-4.10
2022-12-18T21:21:57.539Z,-4.10
2022-12-18T21:24:25.465Z,-4.00
2022-12-18T21:26:53.090Z,-4.10
2022-12-18T21:29:24.835Z,-4.10
2022-12-18T21:31:53.626Z,-4.00
2022-12-18T21:34:26.528Z,-4.10
2022-12-18T21:36:54.709Z,-4.10
2022-12-18T21:39:22.541Z,-4.10
2022-12-18T21:42:09.155Z,-4.10
2022-12-18T21:44:41.599Z,-4.10
2022-12-18T21:47:22.029Z,-4.10
2022-12-18T21:49:52.686Z,-4.10
2022-12-18T21:52:21.561Z,-4.00
2022-12-18T21:54:53.988Z,-4.10
2022-12-18T21:57:20.783Z,-4.10
2022-12-18T21:59:48.789Z,-4.10
2022-12-18T22:02:18.356Z,-4.10
2022-12-18T22:04:46.885Z,-4.00
2022-12-18T22:07:15.038Z,-4.10
2022-12-18T22:09:41.834Z,-4.00
2022-12-18T22:12:10.312Z,-4.00
2022-12-18T22:14:37.311Z,-4.00
2022-12-18T22:17:04.122Z,-4.00
2022-12-18T22:19:32.225Z,-3.90
2022-12-18T22:21:59.016Z,-3.90
2022-12-18T22:24:26.870Z,-3.90
2022-12-18T22:26:54.974Z,-3.90
2022-12-18T22:29:47.484Z,-3.90
2022-12-18T22:32:17.036Z,-4.00
2022-12-18T22:35:01.702Z,-4.00
2022-12-18T22:37:31.963Z,-4.00
2022-12-18T22:39:58.683Z,-4.10
2022-12-18T22:42:25.785Z,-4.10
2022-12-18T22:44:52.563Z,-4.10
2022-12-18T22:47:19.306Z,-4.10
2022-12-18T22:49:46.041Z,-4.10
2022-12-18T22:52:12.885Z,-4.00
2022-12-18T22:54:41.639Z,-4.00
2022-12-18T22:57:09.380Z,-4.00
2022-12-18T22:59:36.099Z,-3.90
2022-12-18T23:02:02.991Z,-4.00
2022-12-18T23:04:35.949Z,-4.00
2022-12-18T23:07:05.330Z,-3.90
2022-12-18T23:09:32.677Z,-3.90
2022-12-18T23:11:59.479Z,-3.90
2022-12-18T23:14:26.716Z,-3.90
2022-12-18T23:16:53.630Z,-3.80
2022-12-18T23:19:21.226Z,-3.90
2022-12-18T23:21:50.568Z,-3.80
2022-12-18T23:24:17.542Z,-3.80
2022-12-18T23:26:44.311Z,-3.70
2022-12-18T23:29:11.034Z,-3.70
2022-12-18T23:31:39.250Z,-3.70
2022-12-18T23:34:07.218Z,-3.70
2022-12-18T23:36:45.586Z,-3.70
2022-12-18T23:39:17.980Z,-3.60
2022-12-18T23:41:56.323Z,-3.60
2022-12-18T23:44:23.146Z,-3.50
2022-12-18T23:46:50.159Z,-3.50
2022-12-18T23:49:17.219Z,-3.50
2022-12-18T23:51:43.963Z,-3.50
2022-12-18T23:54:11.034Z,-3.50
2022-12-18T23:56:37.982Z,-3.40
2022-12-18T23:59:04.814Z,-3.40
